sensor_id;sensor_type;location;lat;lon;timestamp;P1;durP1;ratioP1;P2;durP2;ratioP2
54428;SDS011;40337;52.978;6.310;2024-03-17T00:00:30;7.22;;;2.92;;
54428;SDS011;40337;52.978;6.310;2024-03-17T00:02:56;5.88;;;2.67;;
54428;SDS011;40337;52.978;6.310;2024-03-17T00:05:22;6.65;;;2.47;;
54428;SDS011;40337;52.978;6.310;2024-03-17T00:07:48;6.60;;;2.50;;
54428;SDS011;40337;52.978;6.310;2024-03-17T00:10:13;7.88;;;3.03;;
54428;SDS011;40337;52.978;6.310;2024-03-17T00:12:40;6.57;;;3.10;;
54428;SDS011;40337;52.978;6.310;2024-03-17T00:15:06;6.00;;;2.78;;
54428;SDS011;40337;52.978;6.310;2024-03-17T00:17:32;6.38;;;3.00;;
54428;SDS011;40337;52.978;6.310;2024-03-17T00:20:02;7.88;;;3.00;;
54428;SDS011;40337;52.978;6.310;2024-03-17T00:22:34;5.60;;;3.10;;
54428;SDS011;40337;52.978;6.310;2024-03-17T00:25:04;4.97;;;2.45;;
54428;SDS011;40337;52.978;6.310;2024-03-17T00:27:30;4.13;;;2.50;;
54428;SDS011;40337;52.978;6.310;2024-03-17T00:29:56;4.57;;;2.08;;
54428;SDS011;40337;52.978;6.310;2024-03-17T00:32:22;5.22;;;2.30;;
54428;SDS011;40337;52.978;6.310;2024-03-17T00:34:48;4.47;;;2.03;;
54428;SDS011;40337;52.978;6.310;2024-03-17T00:37:14;4.70;;;2.40;;
54428;SDS011;40337;52.978;6.310;2024-03-17T00:39:40;5.45;;;2.90;;
54428;SDS011;40337;52.978;6.310;2024-03-17T00:42:05;6.57;;;3.28;;
54428;SDS011;40337;52.978;6.310;2024-03-17T00:44:31;5.45;;;2.97;;
54428;SDS011;40337;52.978;6.310;2024-03-17T00:46:57;5.65;;;2.97;;
54428;SDS011;40337;52.978;6.310;2024-03-17T00:49:23;4.55;;;2.47;;
54428;SDS011;40337;52.978;6.310;2024-03-17T00:51:48;4.68;;;2.33;;
54428;SDS011;40337;52.978;6.310;2024-03-17T00:54:15;4.95;;;2.47;;
54428;SDS011;40337;52.978;6.310;2024-03-17T00:56:43;5.45;;;2.47;;
54428;SDS011;40337;52.978;6.310;2024-03-17T00:59:08;6.30;;;2.80;;
54428;SDS011;40337;52.978;6.310;2024-03-17T01:01:34;6.15;;;2.70;;
54428;SDS011;40337;52.978;6.310;2024-03-17T01:04:00;5.40;;;2.72;;
54428;SDS011;40337;52.978;6.310;2024-03-17T01:06:25;4.70;;;2.45;;
54428;SDS011;40337;52.978;6.310;2024-03-17T01:08:51;4.25;;;2.17;;
54428;SDS011;40337;52.978;6.310;2024-03-17T01:11:17;6.57;;;2.58;;
54428;SDS011;40337;52.978;6.310;2024-03-17T01:13:44;4.85;;;2.50;;
54428;SDS011;40337;52.978;6.310;2024-03-17T01:16:15;3.80;;;2.20;;
54428;SDS011;40337;52.978;6.310;2024-03-17T01:18:41;4.57;;;2.28;;
54428;SDS011;40337;52.978;6.310;2024-03-17T01:21:08;5.57;;;2.33;;
54428;SDS011;40337;52.978;6.310;2024-03-17T01:23:34;6.43;;;2.25;;
54428;SDS011;40337;52.978;6.310;2024-03-17T01:25:59;4.68;;;2.17;;
54428;SDS011;40337;52.978;6.310;2024-03-17T01:28:25;5.53;;;1.95;;
54428;SDS011;40337;52.978;6.310;2024-03-17T01:30:52;4.68;;;2.22;;
54428;SDS011;40337;52.978;6.310;2024-03-17T01:33:17;6.22;;;2.13;;
54428;SDS011;40337;52.978;6.310;2024-03-17T01:35:43;5.18;;;2.00;;
54428;SDS011;40337;52.978;6.310;2024-03-17T01:38:09;4.57;;;2.13;;
54428;SDS011;40337;52.978;6.310;2024-03-17T01:40:37;4.35;;;1.98;;
54428;SDS011;40337;52.978;6.310;2024-03-17T01:43:03;4.70;;;2.00;;
54428;SDS011;40337;52.978;6.310;2024-03-17T01:45:29;5.47;;;1.90;;
54428;SDS011;40337;52.978;6.310;2024-03-17T01:47:57;3.17;;;1.67;;
54428;SDS011;40337;52.978;6.310;2024-03-17T01:50:35;4.57;;;2.00;;
54428;SDS011;40337;52.978;6.310;2024-03-17T01:53:05;5.07;;;2.03;;
54428;SDS011;40337;52.978;6.310;2024-03-17T01:55:36;4.40;;;2.03;;
54428;SDS011;40337;52.978;6.310;2024-03-17T01:58:04;5.38;;;2.22;;
54428;SDS011;40337;52.978;6.310;2024-03-17T02:00:33;4.38;;;2.22;;
54428;SDS011;40337;52.978;6.310;2024-03-17T02:03:04;5.15;;;2.55;;
54428;SDS011;40337;52.978;6.310;2024-03-17T02:05:31;6.32;;;2.83;;
54428;SDS011;40337;52.978;6.310;2024-03-17T02:07:57;6.13;;;2.80;;
54428;SDS011;40337;52.978;6.310;2024-03-17T02:10:23;5.68;;;2.40;;
54428;SDS011;40337;52.978;6.310;2024-03-17T02:12:48;5.60;;;2.55;;
54428;SDS011;40337;52.978;6.310;2024-03-17T02:15:14;5.88;;;2.55;;
54428;SDS011;40337;52.978;6.310;2024-03-17T02:17:40;4.95;;;2.60;;
54428;SDS011;40337;52.978;6.310;2024-03-17T02:20:05;6.05;;;2.60;;
54428;SDS011;40337;52.978;6.310;2024-03-17T02:22:34;5.72;;;2.70;;
54428;SDS011;40337;52.978;6.310;2024-03-17T02:25:00;7.78;;;2.83;;
54428;SDS011;40337;52.978;6.310;2024-03-17T02:27:27;6.38;;;2.75;;
54428;SDS011;40337;52.978;6.310;2024-03-17T02:29:52;4.78;;;2.60;;
54428;SDS011;40337;52.978;6.310;2024-03-17T02:32:18;4.30;;;2.22;;
54428;SDS011;40337;52.978;6.310;2024-03-17T02:34:47;6.65;;;2.72;;
54428;SDS011;40337;52.978;6.310;2024-03-17T02:37:13;4.18;;;2.42;;
54428;SDS011;40337;52.978;6.310;2024-03-17T02:39:38;4.57;;;2.25;;
54428;SDS011;40337;52.978;6.310;2024-03-17T02:42:08;4.38;;;2.40;;
54428;SDS011;40337;52.978;6.310;2024-03-17T02:44:35;5.63;;;2.70;;
54428;SDS011;40337;52.978;6.310;2024-03-17T02:47:02;8.15;;;2.70;;
54428;SDS011;40337;52.978;6.310;2024-03-17T02:49:35;4.75;;;2.60;;
54428;SDS011;40337;52.978;6.310;2024-03-17T02:52:07;8.15;;;2.65;;
54428;SDS011;40337;52.978;6.310;2024-03-17T02:54:37;6.90;;;2.38;;
54428;SDS011;40337;52.978;6.310;2024-03-17T02:57:05;6.85;;;2.63;;
54428;SDS011;40337;52.978;6.310;2024-03-17T02:59:31;6.63;;;2.80;;
54428;SDS011;40337;52.978;6.310;2024-03-17T03:01:58;5.20;;;2.42;;
54428;SDS011;40337;52.978;6.310;2024-03-17T03:04:24;7.50;;;3.10;;
54428;SDS011;40337;52.978;6.310;2024-03-17T03:06:50;5.88;;;2.88;;
54428;SDS011;40337;52.978;6.310;2024-03-17T03:09:16;5.95;;;3.20;;
54428;SDS011;40337;52.978;6.310;2024-03-17T03:11:46;5.78;;;2.70;;
54428;SDS011;40337;52.978;6.310;2024-03-17T03:14:12;6.63;;;2.88;;
54428;SDS011;40337;52.978;6.310;2024-03-17T03:16:38;5.78;;;2.50;;
54428;SDS011;40337;52.978;6.310;2024-03-17T03:19:04;5.93;;;2.90;;
54428;SDS011;40337;52.978;6.310;2024-03-17T03:21:33;7.20;;;2.88;;
54428;SDS011;40337;52.978;6.310;2024-03-17T03:23:58;5.53;;;2.80;;
54428;SDS011;40337;52.978;6.310;2024-03-17T03:26:24;5.25;;;2.90;;
54428;SDS011;40337;52.978;6.310;2024-03-17T03:28:49;5.45;;;2.95;;
54428;SDS011;40337;52.978;6.310;2024-03-17T03:31:15;6.32;;;3.13;;
54428;SDS011;40337;52.978;6.310;2024-03-17T03:33:42;6.40;;;3.17;;
54428;SDS011;40337;52.978;6.310;2024-03-17T03:36:09;6.85;;;3.15;;
54428;SDS011;40337;52.978;6.310;2024-03-17T03:38:36;5.75;;;3.08;;
54428;SDS011;40337;52.978;6.310;2024-03-17T03:41:09;8.05;;;3.50;;
54428;SDS011;40337;52.978;6.310;2024-03-17T03:43:35;9.05;;;3.67;;
54428;SDS011;40337;52.978;6.310;2024-03-17T03:46:01;7.97;;;3.30;;
54428;SDS011;40337;52.978;6.310;2024-03-17T03:48:28;5.88;;;3.08;;
54428;SDS011;40337;52.978;6.310;2024-03-17T03:50:53;8.73;;;3.60;;
54428;SDS011;40337;52.978;6.310;2024-03-17T03:53:19;7.75;;;3.38;;
54428;SDS011;40337;52.978;6.310;2024-03-17T03:55:45;6.57;;;3.30;;
54428;SDS011;40337;52.978;6.310;2024-03-17T03:58:11;6.22;;;3.55;;
54428;SDS011;40337;52.978;6.310;2024-03-17T04:00:40;6.38;;;3.60;;
54428;SDS011;40337;52.978;6.310;2024-03-17T04:03:06;7.97;;;4.05;;
54428;SDS011;40337;52.978;6.310;2024-03-17T04:05:32;6.72;;;4.10;;
54428;SDS011;40337;52.978;6.310;2024-03-17T04:07:59;6.35;;;3.92;;
54428;SDS011;40337;52.978;6.310;2024-03-17T04:10:26;8.77;;;4.00;;
54428;SDS011;40337;52.978;6.310;2024-03-17T04:12:52;6.22;;;3.95;;
54428;SDS011;40337;52.978;6.310;2024-03-17T04:15:18;9.00;;;4.45;;
54428;SDS011;40337;52.978;6.310;2024-03-17T04:17:44;8.18;;;4.40;;
54428;SDS011;40337;52.978;6.310;2024-03-17T04:20:10;9.98;;;4.65;;
54428;SDS011;40337;52.978;6.310;2024-03-17T04:22:39;8.82;;;4.90;;
54428;SDS011;40337;52.978;6.310;2024-03-17T04:25:06;9.82;;;4.50;;
54428;SDS011;40337;52.978;6.310;2024-03-17T04:27:31;10.35;;;5.10;;
54428;SDS011;40337;52.978;6.310;2024-03-17T04:29:58;8.98;;;5.10;;
54428;SDS011;40337;52.978;6.310;2024-03-17T04:32:24;8.20;;;5.00;;
54428;SDS011;40337;52.978;6.310;2024-03-17T04:34:52;8.43;;;5.10;;
54428;SDS011;40337;52.978;6.310;2024-03-17T04:37:18;9.20;;;4.88;;
54428;SDS011;40337;52.978;6.310;2024-03-17T04:39:44;9.77;;;4.97;;
54428;SDS011;40337;52.978;6.310;2024-03-17T04:42:11;10.50;;;4.93;;
54428;SDS011;40337;52.978;6.310;2024-03-17T04:44:42;10.55;;;5.20;;
54428;SDS011;40337;52.978;6.310;2024-03-17T04:47:09;10.52;;;5.25;;
54428;SDS011;40337;52.978;6.310;2024-03-17T04:49:36;9.98;;;5.10;;
54428;SDS011;40337;52.978;6.310;2024-03-17T04:52:01;9.35;;;5.13;;
54428;SDS011;40337;52.978;6.310;2024-03-17T04:54:27;10.05;;;4.95;;
54428;SDS011;40337;52.978;6.310;2024-03-17T04:56:53;10.15;;;5.47;;
54428;SDS011;40337;52.978;6.310;2024-03-17T04:59:19;9.40;;;5.47;;
54428;SDS011;40337;52.978;6.310;2024-03-17T05:01:44;9.02;;;5.53;;
54428;SDS011;40337;52.978;6.310;2024-03-17T05:04:10;10.15;;;5.22;;
54428;SDS011;40337;52.978;6.310;2024-03-17T05:06:36;10.75;;;5.20;;
54428;SDS011;40337;52.978;6.310;2024-03-17T05:09:02;10.18;;;4.88;;
54428;SDS011;40337;52.978;6.310;2024-03-17T05:11:30;9.55;;;5.25;;
54428;SDS011;40337;52.978;6.310;2024-03-17T05:13:56;11.07;;;5.60;;
54428;SDS011;40337;52.978;6.310;2024-03-17T05:16:22;8.18;;;5.13;;
54428;SDS011;40337;52.978;6.310;2024-03-17T05:18:49;10.50;;;5.28;;
54428;SDS011;40337;52.978;6.310;2024-03-17T05:21:14;8.77;;;5.22;;
54428;SDS011;40337;52.978;6.310;2024-03-17T05:23:40;10.15;;;5.03;;
54428;SDS011;40337;52.978;6.310;2024-03-17T05:26:06;11.85;;;5.32;;
54428;SDS011;40337;52.978;6.310;2024-03-17T05:28:32;11.85;;;4.85;;
54428;SDS011;40337;52.978;6.310;2024-03-17T05:30:58;12.25;;;5.35;;
54428;SDS011;40337;52.978;6.310;2024-03-17T05:33:24;11.02;;;5.45;;
54428;SDS011;40337;52.978;6.310;2024-03-17T05:35:55;9.38;;;4.75;;
54428;SDS011;40337;52.978;6.310;2024-03-17T05:38:22;9.00;;;5.05;;
54428;SDS011;40337;52.978;6.310;2024-03-17T05:40:53;10.15;;;5.20;;
54428;SDS011;40337;52.978;6.310;2024-03-17T05:43:26;9.73;;;5.35;;
54428;SDS011;40337;52.978;6.310;2024-03-17T05:45:53;9.52;;;5.10;;
54428;SDS011;40337;52.978;6.310;2024-03-17T05:48:19;9.07;;;5.10;;
54428;SDS011;40337;52.978;6.310;2024-03-17T05:50:46;9.77;;;4.85;;
54428;SDS011;40337;52.978;6.310;2024-03-17T05:53:12;10.35;;;5.35;;
54428;SDS011;40337;52.978;6.310;2024-03-17T05:55:37;8.38;;;4.97;;
54428;SDS011;40337;52.978;6.310;2024-03-17T05:58:05;8.32;;;5.13;;
54428;SDS011;40337;52.978;6.310;2024-03-17T06:00:34;10.40;;;4.80;;
54428;SDS011;40337;52.978;6.310;2024-03-17T06:03:03;8.77;;;4.78;;
54428;SDS011;40337;52.978;6.310;2024-03-17T06:05:37;11.63;;;5.47;;
54428;SDS011;40337;52.978;6.310;2024-03-17T06:08:05;9.70;;;4.80;;
54428;SDS011;40337;52.978;6.310;2024-03-17T06:10:34;10.82;;;5.20;;
54428;SDS011;40337;52.978;6.310;2024-03-17T06:13:00;7.22;;;4.65;;
54428;SDS011;40337;52.978;6.310;2024-03-17T06:15:27;9.13;;;4.75;;
54428;SDS011;40337;52.978;6.310;2024-03-17T06:17:52;11.55;;;5.25;;
54428;SDS011;40337;52.978;6.310;2024-03-17T06:20:19;9.95;;;5.00;;
54428;SDS011;40337;52.978;6.310;2024-03-17T06:22:45;8.27;;;5.00;;
54428;SDS011;40337;52.978;6.310;2024-03-17T06:25:11;9.00;;;4.63;;
54428;SDS011;40337;52.978;6.310;2024-03-17T06:27:37;9.88;;;4.72;;
54428;SDS011;40337;52.978;6.310;2024-03-17T06:30:03;8.98;;;4.90;;
54428;SDS011;40337;52.978;6.310;2024-03-17T06:32:29;8.43;;;4.65;;
54428;SDS011;40337;52.978;6.310;2024-03-17T06:34:59;9.55;;;4.45;;
54428;SDS011;40337;52.978;6.310;2024-03-17T06:37:26;11.13;;;5.20;;
54428;SDS011;40337;52.978;6.310;2024-03-17T06:39:53;8.68;;;4.38;;
54428;SDS011;40337;52.978;6.310;2024-03-17T06:42:19;8.25;;;4.70;;
54428;SDS011;40337;52.978;6.310;2024-03-17T06:44:44;9.07;;;4.75;;
54428;SDS011;40337;52.978;6.310;2024-03-17T06:47:10;8.00;;;4.53;;
54428;SDS011;40337;52.978;6.310;2024-03-17T06:49:36;9.20;;;4.50;;
54428;SDS011;40337;52.978;6.310;2024-03-17T06:52:02;10.40;;;4.75;;
54428;SDS011;40337;52.978;6.310;2024-03-17T06:54:27;11.30;;;5.00;;
54428;SDS011;40337;52.978;6.310;2024-03-17T06:56:53;8.65;;;4.30;;
54428;SDS011;40337;52.978;6.310;2024-03-17T06:59:19;9.45;;;4.43;;
54428;SDS011;40337;52.978;6.310;2024-03-17T07:01:46;12.02;;;4.68;;
54428;SDS011;40337;52.978;6.310;2024-03-17T07:04:15;7.38;;;4.28;;
54428;SDS011;40337;52.978;6.310;2024-03-17T07:06:41;9.05;;;4.55;;
54428;SDS011;40337;52.978;6.310;2024-03-17T07:09:07;9.48;;;4.50;;
54428;SDS011;40337;52.978;6.310;2024-03-17T07:11:34;9.65;;;4.60;;
54428;SDS011;40337;52.978;6.310;2024-03-17T07:14:00;8.60;;;4.57;;
54428;SDS011;40337;52.978;6.310;2024-03-17T07:16:26;10.07;;;4.80;;
54428;SDS011;40337;52.978;6.310;2024-03-17T07:21:36;9.52;;;4.93;;
54428;SDS011;40337;52.978;6.310;2024-03-17T07:24:02;9.90;;;5.30;;
54428;SDS011;40337;52.978;6.310;2024-03-17T07:26:29;8.18;;;4.85;;
54428;SDS011;40337;52.978;6.310;2024-03-17T07:29:14;9.00;;;5.07;;
54428;SDS011;40337;52.978;6.310;2024-03-17T07:31:40;11.60;;;5.18;;
54428;SDS011;40337;52.978;6.310;2024-03-17T07:34:06;8.40;;;4.53;;
54428;SDS011;40337;52.978;6.310;2024-03-17T07:36:31;8.05;;;4.97;;
54428;SDS011;40337;52.978;6.310;2024-03-17T07:38:57;14.55;;;5.10;;
54428;SDS011;40337;52.978;6.310;2024-03-17T07:41:23;8.80;;;4.70;;
54428;SDS011;40337;52.978;6.310;2024-03-17T07:43:49;10.70;;;4.80;;
54428;SDS011;40337;52.978;6.310;2024-03-17T07:46:15;10.18;;;4.93;;
54428;SDS011;40337;52.978;6.310;2024-03-17T07:48:41;9.30;;;4.40;;
54428;SDS011;40337;52.978;6.310;2024-03-17T07:51:10;8.82;;;4.75;;
54428;SDS011;40337;52.978;6.310;2024-03-17T07:53:38;9.63;;;4.72;;
54428;SDS011;40337;52.978;6.310;2024-03-17T07:56:05;8.52;;;4.80;;
54428;SDS011;40337;52.978;6.310;2024-03-17T07:58:34;10.55;;;5.00;;
54428;SDS011;40337;52.978;6.310;2024-03-17T08:01:06;10.63;;;5.05;;
54428;SDS011;40337;52.978;6.310;2024-03-17T08:03:34;8.45;;;4.72;;
54428;SDS011;40337;52.978;6.310;2024-03-17T08:06:04;9.32;;;4.75;;
54428;SDS011;40337;52.978;6.310;2024-03-17T08:08:31;10.25;;;5.00;;
54428;SDS011;40337;52.978;6.310;2024-03-17T08:10:57;13.80;;;5.82;;
54428;SDS011;40337;52.978;6.310;2024-03-17T08:13:24;9.38;;;5.47;;
54428;SDS011;40337;52.978;6.310;2024-03-17T08:15:57;8.63;;;5.40;;
54428;SDS011;40337;52.978;6.310;2024-03-17T08:18:26;11.43;;;5.57;;
54428;SDS011;40337;52.978;6.310;2024-03-17T08:20:52;8.80;;;5.20;;
54428;SDS011;40337;52.978;6.310;2024-03-17T08:23:22;12.07;;;5.93;;
54428;SDS011;40337;52.978;6.310;2024-03-17T08:25:52;11.13;;;5.88;;
54428;SDS011;40337;52.978;6.310;2024-03-17T08:28:19;11.02;;;6.13;;
54428;SDS011;40337;52.978;6.310;2024-03-17T08:30:54;9.65;;;6.03;;
54428;SDS011;40337;52.978;6.310;2024-03-17T08:33:22;10.10;;;6.05;;
54428;SDS011;40337;52.978;6.310;2024-03-17T08:35:58;10.98;;;7.03;;
54428;SDS011;40337;52.978;6.310;2024-03-17T08:38:26;9.93;;;6.68;;
54428;SDS011;40337;52.978;6.310;2024-03-17T08:40:53;10.65;;;7.13;;
54428;SDS011;40337;52.978;6.310;2024-03-17T08:43:20;10.25;;;6.63;;
54428;SDS011;40337;52.978;6.310;2024-03-17T08:45:56;11.05;;;7.28;;
54428;SDS011;40337;52.978;6.310;2024-03-17T08:48:30;11.48;;;7.40;;
54428;SDS011;40337;52.978;6.310;2024-03-17T08:50:57;10.95;;;6.90;;
54428;SDS011;40337;52.978;6.310;2024-03-17T08:53:24;11.02;;;7.15;;
54428;SDS011;40337;52.978;6.310;2024-03-17T08:55:50;12.70;;;7.30;;
54428;SDS011;40337;52.978;6.310;2024-03-17T08:58:15;12.05;;;6.88;;
54428;SDS011;40337;52.978;6.310;2024-03-17T09:00:42;11.43;;;7.40;;
54428;SDS011;40337;52.978;6.310;2024-03-17T09:03:08;14.77;;;7.75;;
54428;SDS011;40337;52.978;6.310;2024-03-17T09:05:41;11.23;;;7.15;;
54428;SDS011;40337;52.978;6.310;2024-03-17T09:08:10;9.85;;;7.20;;
54428;SDS011;40337;52.978;6.310;2024-03-17T09:10:42;11.40;;;7.32;;
54428;SDS011;40337;52.978;6.310;2024-03-17T09:13:16;12.65;;;8.13;;
54428;SDS011;40337;52.978;6.310;2024-03-17T09:15:55;11.65;;;7.50;;
54428;SDS011;40337;52.978;6.310;2024-03-17T09:18:24;11.20;;;7.57;;
54428;SDS011;40337;52.978;6.310;2024-03-17T09:21:00;13.20;;;7.63;;
54428;SDS011;40337;52.978;6.310;2024-03-17T09:24:04;10.45;;;7.35;;
54428;SDS011;40337;52.978;6.310;2024-03-17T09:26:30;12.60;;;7.43;;
54428;SDS011;40337;52.978;6.310;2024-03-17T09:28:56;11.15;;;7.45;;
54428;SDS011;40337;52.978;6.310;2024-03-17T09:31:21;10.60;;;7.68;;
54428;SDS011;40337;52.978;6.310;2024-03-17T09:33:47;11.70;;;7.38;;
54428;SDS011;40337;52.978;6.310;2024-03-17T09:36:13;11.48;;;7.18;;
54428;SDS011;40337;52.978;6.310;2024-03-17T09:38:39;10.82;;;7.45;;
54428;SDS011;40337;52.978;6.310;2024-03-17T09:41:08;9.93;;;6.97;;
54428;SDS011;40337;52.978;6.310;2024-03-17T09:43:45;10.13;;;7.43;;
54428;SDS011;40337;52.978;6.310;2024-03-17T09:46:13;12.82;;;8.10;;
54428;SDS011;40337;52.978;6.310;2024-03-17T09:48:39;10.02;;;7.05;;
54428;SDS011;40337;52.978;6.310;2024-03-17T09:51:05;10.90;;;8.05;;
54428;SDS011;40337;52.978;6.310;2024-03-17T09:53:31;12.00;;;7.20;;
54428;SDS011;40337;52.978;6.310;2024-03-17T09:56:06;10.50;;;7.70;;
54428;SDS011;40337;52.978;6.310;2024-03-17T09:58:35;11.95;;;7.88;;
54428;SDS011;40337;52.978;6.310;2024-03-17T10:01:00;11.55;;;8.00;;
54428;SDS011;40337;52.978;6.310;2024-03-17T10:03:39;10.80;;;7.50;;
54428;SDS011;40337;52.978;6.310;2024-03-17T10:06:11;10.27;;;7.70;;
54428;SDS011;40337;52.978;6.310;2024-03-17T10:08:43;10.55;;;7.45;;
54428;SDS011;40337;52.978;6.310;2024-03-17T10:11:16;10.23;;;7.70;;
54428;SDS011;40337;52.978;6.310;2024-03-17T10:13:44;11.23;;;7.80;;
54428;SDS011;40337;52.978;6.310;2024-03-17T10:16:24;9.77;;;7.50;;
54428;SDS011;40337;52.978;6.310;2024-03-17T10:19:05;11.05;;;7.57;;
54428;SDS011;40337;52.978;6.310;2024-03-17T10:21:35;10.85;;;7.70;;
54428;SDS011;40337;52.978;6.310;2024-03-17T10:24:05;9.90;;;7.70;;
54428;SDS011;40337;52.978;6.310;2024-03-17T10:26:48;12.43;;;8.30;;
54428;SDS011;40337;52.978;6.310;2024-03-17T10:29:34;10.70;;;7.93;;
54428;SDS011;40337;52.978;6.310;2024-03-17T10:32:04;11.30;;;7.95;;
54428;SDS011;40337;52.978;6.310;2024-03-17T10:34:38;11.27;;;8.68;;
54428;SDS011;40337;52.978;6.310;2024-03-17T10:39:48;10.57;;;8.50;;
54428;SDS011;40337;52.978;6.310;2024-03-17T10:42:20;10.10;;;7.70;;
54428;SDS011;40337;52.978;6.310;2024-03-17T10:44:53;12.88;;;8.32;;
54428;SDS011;40337;52.978;6.310;2024-03-17T10:47:24;12.05;;;8.68;;
54428;SDS011;40337;52.978;6.310;2024-03-17T10:49:51;12.73;;;8.98;;
54428;SDS011;40337;52.978;6.310;2024-03-17T10:52:19;10.70;;;8.18;;
54428;SDS011;40337;52.978;6.310;2024-03-17T10:54:49;11.55;;;8.55;;
54428;SDS011;40337;52.978;6.310;2024-03-17T11:00:02;11.50;;;8.43;;
54428;SDS011;40337;52.978;6.310;2024-03-17T11:02:30;11.43;;;7.80;;
54428;SDS011;40337;52.978;6.310;2024-03-17T11:05:11;12.60;;;8.13;;
54428;SDS011;40337;52.978;6.310;2024-03-17T11:07:42;11.55;;;8.55;;
54428;SDS011;40337;52.978;6.310;2024-03-17T11:10:26;10.57;;;7.85;;
54428;SDS011;40337;52.978;6.310;2024-03-17T11:12:54;11.00;;;8.05;;
54428;SDS011;40337;52.978;6.310;2024-03-17T11:17:52;10.85;;;8.02;;
54428;SDS011;40337;52.978;6.310;2024-03-17T11:20:22;10.32;;;7.78;;
54428;SDS011;40337;52.978;6.310;2024-03-17T11:22:51;9.88;;;7.82;;
54428;SDS011;40337;52.978;6.310;2024-03-17T11:28:02;10.77;;;8.13;;
54428;SDS011;40337;52.978;6.310;2024-03-17T11:39:04;8.55;;;7.05;;
54428;SDS011;40337;52.978;6.310;2024-03-17T11:41:48;9.68;;;7.22;;
54428;SDS011;40337;52.978;6.310;2024-03-17T11:46:57;8.95;;;7.80;;
54428;SDS011;40337;52.978;6.310;2024-03-17T11:49:41;9.32;;;7.63;;
54428;SDS011;40337;52.978;6.310;2024-03-17T11:52:09;10.65;;;7.93;;
54428;SDS011;40337;52.978;6.310;2024-03-17T11:54:38;9.30;;;6.72;;
54428;SDS011;40337;52.978;6.310;2024-03-17T11:57:09;9.40;;;7.03;;
54428;SDS011;40337;52.978;6.310;2024-03-17T11:59:39;10.20;;;7.82;;
54428;SDS011;40337;52.978;6.310;2024-03-17T12:05:02;8.98;;;7.00;;
54428;SDS011;40337;52.978;6.310;2024-03-17T12:07:30;9.00;;;6.68;;
54428;SDS011;40337;52.978;6.310;2024-03-17T12:09:56;9.43;;;7.10;;
54428;SDS011;40337;52.978;6.310;2024-03-17T12:12:23;9.48;;;7.25;;
54428;SDS011;40337;52.978;6.310;2024-03-17T12:14:56;8.65;;;6.97;;
54428;SDS011;40337;52.978;6.310;2024-03-17T12:17:22;9.27;;;7.47;;
54428;SDS011;40337;52.978;6.310;2024-03-17T12:19:49;9.10;;;7.30;;
54428;SDS011;40337;52.978;6.310;2024-03-17T12:22:16;9.57;;;7.47;;
54428;SDS011;40337;52.978;6.310;2024-03-17T12:24:46;10.32;;;7.70;;
54428;SDS011;40337;52.978;6.310;2024-03-17T12:27:17;10.02;;;7.10;;
54428;SDS011;40337;52.978;6.310;2024-03-17T12:29:44;9.05;;;7.45;;
54428;SDS011;40337;52.978;6.310;2024-03-17T12:34:39;11.52;;;8.07;;
54428;SDS011;40337;52.978;6.310;2024-03-17T12:37:06;9.27;;;7.38;;
54428;SDS011;40337;52.978;6.310;2024-03-17T12:39:33;9.52;;;7.72;;
54428;SDS011;40337;52.978;6.310;2024-03-17T12:42:08;9.77;;;7.78;;
54428;SDS011;40337;52.978;6.310;2024-03-17T12:45:00;11.13;;;7.55;;
54428;SDS011;40337;52.978;6.310;2024-03-17T12:47:29;9.52;;;7.28;;
54428;SDS011;40337;52.978;6.310;2024-03-17T12:49:57;11.10;;;7.80;;
54428;SDS011;40337;52.978;6.310;2024-03-17T12:52:24;9.40;;;7.50;;
54428;SDS011;40337;52.978;6.310;2024-03-17T12:55:04;9.85;;;7.47;;
54428;SDS011;40337;52.978;6.310;2024-03-17T13:00:45;9.20;;;7.05;;
54428;SDS011;40337;52.978;6.310;2024-03-17T13:03:23;10.05;;;7.10;;
54428;SDS011;40337;52.978;6.310;2024-03-17T13:05:50;8.60;;;7.65;;
54428;SDS011;40337;52.978;6.310;2024-03-17T13:08:16;9.45;;;7.43;;
54428;SDS011;40337;52.978;6.310;2024-03-17T13:10:42;9.27;;;7.60;;
54428;SDS011;40337;52.978;6.310;2024-03-17T13:13:08;9.43;;;7.05;;
54428;SDS011;40337;52.978;6.310;2024-03-17T13:15:35;9.77;;;7.70;;
54428;SDS011;40337;52.978;6.310;2024-03-17T13:18:04;9.77;;;7.50;;
54428;SDS011;40337;52.978;6.310;2024-03-17T13:20:31;9.93;;;7.63;;
54428;SDS011;40337;52.978;6.310;2024-03-17T13:22:57;9.00;;;7.72;;
54428;SDS011;40337;52.978;6.310;2024-03-17T13:25:25;11.40;;;7.25;;
54428;SDS011;40337;52.978;6.310;2024-03-17T13:27:54;7.97;;;6.90;;
54428;SDS011;40337;52.978;6.310;2024-03-17T13:30:23;8.48;;;7.00;;
54428;SDS011;40337;52.978;6.310;2024-03-17T13:32:50;10.63;;;7.20;;
54428;SDS011;40337;52.978;6.310;2024-03-17T13:35:21;7.88;;;7.07;;
54428;SDS011;40337;52.978;6.310;2024-03-17T13:37:49;9.60;;;6.88;;
54428;SDS011;40337;52.978;6.310;2024-03-17T13:40:15;8.68;;;6.55;;
54428;SDS011;40337;52.978;6.310;2024-03-17T13:42:47;8.05;;;6.47;;
54428;SDS011;40337;52.978;6.310;2024-03-17T13:45:14;9.45;;;7.15;;
54428;SDS011;40337;52.978;6.310;2024-03-17T13:47:41;7.53;;;6.60;;
54428;SDS011;40337;52.978;6.310;2024-03-17T13:50:13;7.18;;;6.47;;
54428;SDS011;40337;52.978;6.310;2024-03-17T13:52:39;7.95;;;6.60;;
54428;SDS011;40337;52.978;6.310;2024-03-17T13:55:06;7.10;;;6.30;;
54428;SDS011;40337;52.978;6.310;2024-03-17T13:57:38;7.80;;;6.93;;
54428;SDS011;40337;52.978;6.310;2024-03-17T14:00:04;8.40;;;6.90;;
54428;SDS011;40337;52.978;6.310;2024-03-17T14:02:32;8.18;;;6.53;;
54428;SDS011;40337;52.978;6.310;2024-03-17T14:04:58;7.30;;;6.55;;
54428;SDS011;40337;52.978;6.310;2024-03-17T14:07:24;8.77;;;7.00;;
54428;SDS011;40337;52.978;6.310;2024-03-17T14:09:50;7.97;;;6.55;;
54428;SDS011;40337;52.978;6.310;2024-03-17T14:12:15;9.05;;;6.68;;
54428;SDS011;40337;52.978;6.310;2024-03-17T14:14:42;9.00;;;7.28;;
54428;SDS011;40337;52.978;6.310;2024-03-17T14:17:08;9.75;;;6.85;;
54428;SDS011;40337;52.978;6.310;2024-03-17T14:19:34;8.40;;;7.18;;
54428;SDS011;40337;52.978;6.310;2024-03-17T14:22:00;8.32;;;6.80;;
54428;SDS011;40337;52.978;6.310;2024-03-17T14:24:26;8.35;;;7.40;;
54428;SDS011;40337;52.978;6.310;2024-03-17T14:26:52;8.40;;;7.50;;
54428;SDS011;40337;52.978;6.310;2024-03-17T14:29:17;7.57;;;6.75;;
54428;SDS011;40337;52.978;6.310;2024-03-17T14:31:43;7.57;;;6.50;;
54428;SDS011;40337;52.978;6.310;2024-03-17T14:34:10;8.57;;;6.68;;
54428;SDS011;40337;52.978;6.310;2024-03-17T14:36:36;8.07;;;6.53;;
54428;SDS011;40337;52.978;6.310;2024-03-17T14:39:02;8.13;;;6.80;;
54428;SDS011;40337;52.978;6.310;2024-03-17T14:41:28;8.40;;;6.28;;
54428;SDS011;40337;52.978;6.310;2024-03-17T14:43:55;8.27;;;6.93;;
54428;SDS011;40337;52.978;6.310;2024-03-17T14:46:22;9.32;;;6.80;;
54428;SDS011;40337;52.978;6.310;2024-03-17T14:48:48;7.78;;;6.72;;
54428;SDS011;40337;52.978;6.310;2024-03-17T14:51:16;8.75;;;6.80;;
54428;SDS011;40337;52.978;6.310;2024-03-17T14:53:42;9.20;;;6.90;;
54428;SDS011;40337;52.978;6.310;2024-03-17T14:56:13;8.25;;;7.05;;
54428;SDS011;40337;52.978;6.310;2024-03-17T14:58:41;9.07;;;7.72;;
54428;SDS011;40337;52.978;6.310;2024-03-17T15:01:07;8.00;;;6.97;;
54428;SDS011;40337;52.978;6.310;2024-03-17T15:03:34;9.52;;;7.55;;
54428;SDS011;40337;52.978;6.310;2024-03-17T15:06:00;9.88;;;7.85;;
54428;SDS011;40337;52.978;6.310;2024-03-17T15:08:26;9.10;;;7.88;;
54428;SDS011;40337;52.978;6.310;2024-03-17T15:10:53;9.57;;;7.88;;
54428;SDS011;40337;52.978;6.310;2024-03-17T15:13:19;9.88;;;7.70;;
54428;SDS011;40337;52.978;6.310;2024-03-17T15:15:45;9.25;;;7.93;;
54428;SDS011;40337;52.978;6.310;2024-03-17T15:18:12;9.57;;;8.20;;
54428;SDS011;40337;52.978;6.310;2024-03-17T15:20:38;9.75;;;7.85;;